Time;durP1;ratioP1;P1;durP2;ratioP2;P2;SDS_P1;SDS_P2;PMS_P1;PMS_P2;Temp;Humidity;BMP_temperature;BMP_pressure;BME280_temperature;BME280_humidity;BME280_pressure;Samples;Min_cycle;Max_cycle;Signal;HPM_P1;HPM_P2
2023/02/01 00:01:18;;;;;;;25.55;12.50;;;;;;;;;;4920610;29;20411;-91
2023/02/01 00:03:45;;;;;;;27.40;13.55;;;;;;;;;;4921037;29;20364;-91
2023/02/01 00:06:11;;;;;;;28.13;14.80;;;;;;;;;;4920614;29;20047;-91
2023/02/01 00:08:37;;;;;;;28.13;15.60;;;;;;;;;;4921004;29;20035;-93
2023/02/01 00:11:08;;;;;;;27.17;14.05;;;;;;;;;;4920961;29;20028;-92
2023/02/01 00:13:37;;;;;;;28.88;13.88;;;;;;;;;;4920832;29;20056;-91
2023/02/01 00:16:08;;;;;;;24.88;14.27;;;;;;;;;;4920886;29;20036;-92
2023/02/01 00:18:34;;;;;;;25.65;12.82;;;;;;;;;;4920101;29;20435;-91
2023/02/01 00:21:01;;;;;;;32.08;15.10;;;;;;;;;;4920316;29;20067;-92
2023/02/01 00:23:28;;;;;;;28.13;13.88;;;;;;;;;;4905901;29;20051;-91
2023/02/01 00:25:54;;;;;;;25.50;13.55;;;;;;;;;;4905730;29;20054;-94
2023/02/01 00:28:20;;;;;;;23.73;12.80;;;;;;;;;;4904822;29;20041;-92
2023/02/01 00:30:46;;;;;;;28.52;14.07;;;;;;;;;;4906167;29;20398;-92
2023/02/01 00:33:12;;;;;;;29.05;14.27;;;;;;;;;;4905812;29;20028;-91
2023/02/01 00:35:38;;;;;;;29.20;13.70;;;;;;;;;;4905795;29;20035;-92
2023/02/01 00:38:04;;;;;;;25.40;13.25;;;;;;;;;;4905941;29;20042;-91
2023/02/01 00:40:31;;;;;;;29.98;13.65;;;;;;;;;;4905794;29;20036;-92
2023/02/01 00:42:57;;;;;;;25.27;12.90;;;;;;;;;;4904519;29;20036;-91
2023/02/01 00:45:23;;;;;;;27.00;12.90;;;;;;;;;;4905687;29;20025;-90
2023/02/01 00:47:49;;;;;;;23.05;13.52;;;;;;;;;;4905393;29;20141;-92
2023/02/01 00:50:16;;;;;;;25.10;12.10;;;;;;;;;;4922047;29;20032;-91
2023/02/01 00:52:47;;;;;;;24.80;12.60;;;;;;;;;;4923202;29;20054;-91
2023/02/01 00:55:13;;;;;;;23.08;12.30;;;;;;;;;;4922665;29;20051;-92
2023/02/01 00:57:39;;;;;;;26.00;13.48;;;;;;;;;;4924090;29;20056;-92
2023/02/01 01:00:06;;;;;;;22.83;13.02;;;;;;;;;;4923759;29;20446;-91
2023/02/01 01:02:32;;;;;;;25.08;12.13;;;;;;;;;;4923712;29;20028;-91
2023/02/01 01:04:58;;;;;;;24.95;13.20;;;;;;;;;;4923895;29;20123;-92
2023/02/01 01:07:24;;;;;;;30.83;15.13;;;;;;;;;;4904488;29;20049;-91
2023/02/01 01:12:53;;;;;;;26.40;14.57;;;;;;;;;;4923802;29;20079;-92
2023/02/01 01:15:19;;;;;;;25.77;14.50;;;;;;;;;;4923054;29;20445;-93
2023/02/01 01:17:45;;;;;;;26.30;14.00;;;;;;;;;;4923178;29;20400;-92
2023/02/01 01:20:12;;;;;;;21.13;11.80;;;;;;;;;;4923979;29;20047;-91
2023/02/01 01:22:38;;;;;;;17.63;10.00;;;;;;;;;;4923571;29;20021;-91
2023/02/01 01:25:04;;;;;;;20.10;11.13;;;;;;;;;;4923456;29;20039;-92
2023/02/01 01:27:30;;;;;;;20.13;10.05;;;;;;;;;;4922865;29;20062;-94
2023/02/01 01:29:57;;;;;;;20.45;9.52;;;;;;;;;;4923921;29;20032;-93
2023/02/01 01:32:23;;;;;;;18.88;10.23;;;;;;;;;;4923230;29;20032;-92
2023/02/01 01:34:49;;;;;;;20.17;10.32;;;;;;;;;;4921781;29;20024;-93
2023/02/01 01:37:15;;;;;;;18.02;9.18;;;;;;;;;;4922436;29;20376;-92
2023/02/01 01:39:41;;;;;;;18.50;8.63;;;;;;;;;;4923688;29;20020;-94
2023/02/01 01:42:09;;;;;;;19.33;8.70;;;;;;;;;;4922275;29;20032;-93
2023/02/01 01:44:57;;;;;;;14.32;8.27;;;;;;;;;;4922095;29;20032;-94
2023/02/01 01:47:23;;;;;;;14.57;7.85;;;;;;;;;;4923640;29;20032;-93
2023/02/01 01:49:50;;;;;;;17.73;8.70;;;;;;;;;;4923408;29;20036;-92
2023/02/01 01:52:16;;;;;;;16.58;8.20;;;;;;;;;;4921717;29;20039;-94
2023/02/01 01:54:49;;;;;;;16.33;8.73;;;;;;;;;;4922375;29;20055;-92
2023/02/01 01:57:17;;;;;;;14.82;8.07;;;;;;;;;;4902939;29;20040;-92
2023/02/01 01:59:46;;;;;;;15.70;7.93;;;;;;;;;;4904533;29;20031;-92
2023/02/01 02:02:12;;;;;;;14.57;8.25;;;;;;;;;;4902807;29;20033;-92
2023/02/01 02:04:39;;;;;;;17.73;8.35;;;;;;;;;;4903504;29;20025;-92
2023/02/01 02:07:08;;;;;;;16.23;7.35;;;;;;;;;;4896809;29;20040;-92
2023/02/01 02:09:34;;;;;;;15.88;8.82;;;;;;;;;;4903877;29;20041;-93
2023/02/01 02:12:00;;;;;;;21.65;9.63;;;;;;;;;;4903839;29;20032;-91
2023/02/01 02:14:27;;;;;;;15.30;7.40;;;;;;;;;;4903506;29;20432;-93
2023/02/01 02:17:02;;;;;;;15.43;7.80;;;;;;;;;;4903615;29;20028;-92
2023/02/01 02:19:47;;;;;;;14.48;7.72;;;;;;;;;;4902477;29;20077;-93
2023/02/01 02:22:19;;;;;;;14.15;7.07;;;;;;;;;;4903626;29;20020;-93
2023/02/01 02:28:08;;;;;;;15.70;8.55;;;;;;;;;;4903673;29;20035;-93
2023/02/01 02:30:45;;;;;;;17.85;8.13;;;;;;;;;;4903339;29;20039;-94
2023/02/01 02:33:30;;;;;;;17.17;8.23;;;;;;;;;;4903755;29;20028;-93
2023/02/01 02:36:02;;;;;;;14.68;8.27;;;;;;;;;;4902279;29;20444;-94
2023/02/01 02:47:24;;;;;;;14.82;8.98;;;;;;;;;;4902862;29;20373;-92
2023/02/01 02:54:45;;;;;;;15.52;8.82;;;;;;;;;;4886419;29;20033;-91
2023/02/01 02:55:27;;;;;;;19.88;10.57;;;;;;;;;;4912943;29;20086;-92
2023/02/01 03:06:15;;;;;;;23.05;11.18;;;;;;;;;;4940704;29;20459;-91
2023/02/01 03:14:31;;;;;;;20.10;11.55;;;;;;;;;;4940929;29;20039;-91
2023/02/01 03:17:04;;;;;;;19.48;11.10;;;;;;;;;;4923605;29;20044;-93
2023/02/01 03:19:43;;;;;;;17.13;9.95;;;;;;;;;;4923957;29;20055;-92
2023/02/01 03:22:11;;;;;;;19.65;10.40;;;;;;;;;;4940734;29;20437;-91
2023/02/01 03:24:57;;;;;;;19.90;10.15;;;;;;;;;;4940847;29;20024;-92
2023/02/01 03:27:33;;;;;;;19.63;9.95;;;;;;;;;;4940682;29;20028;-92
2023/02/01 03:30:06;;;;;;;21.75;10.23;;;;;;;;;;4923788;29;20031;-94
2023/02/01 03:32:58;;;;;;;16.67;9.73;;;;;;;;;;4940854;29;20059;-93
2023/02/01 03:35:21;;;;;;;18.65;10.57;;;;;;;;;;4940067;29;20111;-92
2023/02/01 03:37:48;;;;;;;18.80;9.77;;;;;;;;;;4923609;29;20122;-93
2023/02/01 03:40:16;;;;;;;19.52;9.82;;;;;;;;;;4940662;29;20035;-91
2023/02/01 03:42:45;;;;;;;22.08;10.57;;;;;;;;;;4940508;29;20043;-93
2023/02/01 03:45:11;;;;;;;20.65;10.07;;;;;;;;;;4940368;29;20027;-93
2023/02/01 03:47:42;;;;;;;17.17;9.32;;;;;;;;;;4939895;29;20092;-93
2023/02/01 03:50:10;;;;;;;20.35;10.05;;;;;;;;;;4940215;29;20051;-94
2023/02/01 03:52:42;;;;;;;24.02;11.55;;;;;;;;;;4923133;29;20041;-92
2023/02/01 03:55:09;;;;;;;26.05;10.38;;;;;;;;;;4940033;29;20031;-92
2023/02/01 03:57:37;;;;;;;19.48;9.02;;;;;;;;;;4926341;29;20074;-93
2023/02/01 04:00:09;;;;;;;20.13;9.27;;;;;;;;;;4943710;29;20130;-93
2023/02/01 04:02:35;;;;;;;21.38;10.10;;;;;;;;;;4943763;29;20024;-93
2023/02/01 04:05:02;;;;;;;18.98;10.23;;;;;;;;;;4926703;29;20076;-92
2023/02/01 04:07:28;;;;;;;20.33;9.95;;;;;;;;;;4926950;29;20062;-92
2023/02/01 04:12:57;;;;;;;16.52;9.43;;;;;;;;;;4944102;29;20090;-93
2023/02/01 04:15:23;;;;;;;17.08;9.45;;;;;;;;;;4943548;29;20035;-94
2023/02/01 04:17:49;;;;;;;17.05;8.77;;;;;;;;;;4944028;29;20051;-93
2023/02/01 04:20:16;;;;;;;21.08;10.63;;;;;;;;;;4943870;29;20128;-93
2023/02/01 04:22:42;;;;;;;18.15;10.27;;;;;;;;;;4944020;29;20035;-93
2023/02/01 04:25:08;;;;;;;19.58;11.00;;;;;;;;;;4927171;29;20466;-92
2023/02/01 04:27:35;;;;;;;28.25;14.13;;;;;;;;;;4926941;29;20318;-90
2023/02/01 04:30:01;;;;;;;32.38;14.52;;;;;;;;;;4943919;29;20307;-92
2023/02/01 04:32:27;;;;;;;35.53;14.88;;;;;;;;;;4945625;29;20486;-92
2023/02/01 04:34:53;;;;;;;34.85;14.85;;;;;;;;;;4962972;29;20039;-92
2023/02/01 04:37:19;;;;;;;43.83;18.33;;;;;;;;;;4945654;29;20123;-92
2023/02/01 04:39:45;;;;;;;38.85;17.75;;;;;;;;;;4959835;29;20028;-94
2023/02/01 04:42:11;;;;;;;27.90;14.63;;;;;;;;;;4926571;29;20118;-94
2023/02/01 04:44:39;;;;;;;26.38;13.02;;;;;;;;;;4926228;29;20363;-92
2023/02/01 04:47:05;;;;;;;22.50;11.60;;;;;;;;;;4943453;29;20378;-93
2023/02/01 04:49:31;;;;;;;24.55;10.65;;;;;;;;;;4926402;29;20406;-93
2023/02/01 04:51:57;;;;;;;27.77;13.02;;;;;;;;;;4943074;29;20050;-94
2023/02/01 04:54:23;;;;;;;26.92;12.32;;;;;;;;;;4943068;29;20043;-92
2023/02/01 04:56:49;;;;;;;22.98;11.00;;;;;;;;;;4926186;29;20048;-92
2023/02/01 04:59:15;;;;;;;22.77;11.10;;;;;;;;;;4943363;29;20051;-92
2023/02/01 05:01:41;;;;;;;20.23;9.35;;;;;;;;;;4943058;29;20024;-92
2023/02/01 05:04:07;;;;;;;20.17;10.02;;;;;;;;;;4926191;29;20122;-92
2023/02/01 05:06:33;;;;;;;15.15;8.65;;;;;;;;;;4942936;29;20075;-93
2023/02/01 05:08:59;;;;;;;20.42;11.35;;;;;;;;;;4941519;29;20075;-93
2023/02/01 05:14:10;;;;;;;22.58;11.90;;;;;;;;;;4943133;29;20050;-92
2023/02/01 05:16:37;;;;;;;16.70;9.70;;;;;;;;;;4942923;29;20036;-93
2023/02/01 05:19:03;;;;;;;19.45;9.55;;;;;;;;;;4942973;29;20100;-93
2023/02/01 05:21:29;;;;;;;17.45;9.73;;;;;;;;;;4942553;29;20027;-93
2023/02/01 05:24:12;;;;;;;17.15;9.93;;;;;;;;;;4925968;29;20023;-93
2023/02/01 05:26:38;;;;;;;18.65;10.20;;;;;;;;;;4925721;29;20040;-92
2023/02/01 05:29:05;;;;;;;23.48;13.02;;;;;;;;;;4942520;29;20077;-94
2023/02/01 05:31:31;;;;;;;28.63;15.23;;;;;;;;;;4925910;29;20023;-92
2023/02/01 05:33:57;;;;;;;29.15;14.18;;;;;;;;;;4925513;28;20034;-93
2023/02/01 05:36:23;;;;;;;32.80;15.68;;;;;;;;;;4942369;29;20027;-93
2023/02/01 05:38:49;;;;;;;26.50;13.32;;;;;;;;;;4925725;29;20023;-93
2023/02/01 05:41:15;;;;;;;19.00;10.73;;;;;;;;;;4942273;29;20119;-93
2023/02/01 05:43:41;;;;;;;25.00;11.40;;;;;;;;;;4925761;29;20031;-93
2023/02/01 05:46:10;;;;;;;21.35;12.63;;;;;;;;;;4925690;29;20126;-93
2023/02/01 05:48:36;;;;;;;25.02;11.48;;;;;;;;;;4942113;29;20106;-92
2023/02/01 05:51:02;;;;;;;20.83;11.23;;;;;;;;;;4942138;29;20031;-93
2023/02/01 05:53:29;;;;;;;37.00;16.48;;;;;;;;;;4924987;29;20106;-92
2023/02/01 05:55:56;;;;;;;75.75;23.50;;;;;;;;;;4942001;29;20131;-93
2023/02/01 05:58:22;;;;;;;60.97;19.85;;;;;;;;;;4941989;29;20039;-94
2023/02/01 06:00:48;;;;;;;35.80;15.85;;;;;;;;;;4942101;29;20327;-92
2023/02/01 06:03:14;;;;;;;46.95;17.20;;;;;;;;;;4925086;29;20035;-92
2023/02/01 06:05:40;;;;;;;69.05;21.00;;;;;;;;;;4942137;29;20043;-92
2023/02/01 06:11:09;;;;;;;71.43;19.63;;;;;;;;;;4941932;29;20067;-93
2023/02/01 06:13:38;;;;;;;50.47;19.50;;;;;;;;;;4925228;29;20035;-92
2023/02/01 06:16:06;;;;;;;42.20;19.75;;;;;;;;;;4941497;29;20035;-92
2023/02/01 06:18:32;;;;;;;29.60;15.77;;;;;;;;;;4924848;29;20024;-92
2023/02/01 06:21:02;;;;;;;29.90;15.98;;;;;;;;;;4941443;29;20035;-93
2023/02/01 06:23:29;;;;;;;31.65;15.48;;;;;;;;;;4924795;29;20024;-93
2023/02/01 06:26:07;;;;;;;30.95;14.65;;;;;;;;;;4941462;29;20147;-91
2023/02/01 06:28:34;;;;;;;26.85;14.60;;;;;;;;;;4924754;29;20055;-92
2023/02/01 06:31:06;;;;;;;38.13;19.40;;;;;;;;;;4941296;29;20028;-92
2023/02/01 06:33:36;;;;;;;49.22;26.40;;;;;;;;;;4941507;29;20024;-94
2023/02/01 06:36:03;;;;;;;57.33;28.23;;;;;;;;;;4924583;29;20102;-93
2023/02/01 06:38:29;;;;;;;42.53;21.48;;;;;;;;;;4941275;29;20038;-93
2023/02/01 06:40:56;;;;;;;43.03;23.50;;;;;;;;;;4941166;29;20019;-94
2023/02/01 06:43:22;;;;;;;39.15;22.25;;;;;;;;;;4941122;29;20034;-92
2023/02/01 06:45:48;;;;;;;36.25;17.73;;;;;;;;;;4924412;29;20035;-93
2023/02/01 06:48:14;;;;;;;43.55;21.10;;;;;;;;;;4941230;29;20399;-93
2023/02/01 06:50:40;;;;;;;81.20;32.10;;;;;;;;;;4924650;29;20091;-94
2023/02/01 06:53:06;;;;;;;89.22;34.28;;;;;;;;;;4941158;29;20110;-94
2023/02/01 06:55:33;;;;;;;68.85;28.98;;;;;;;;;;4924198;29;20067;-95
2023/02/01 06:57:59;;;;;;;59.22;26.40;;;;;;;;;;4924564;29;20047;-93
2023/02/01 07:00:26;;;;;;;48.00;26.83;;;;;;;;;;4941101;29;20020;-93
2023/02/01 07:02:54;;;;;;;55.63;32.03;;;;;;;;;;4924190;29;20337;-93
2023/02/01 07:05:21;;;;;;;98.28;45.03;;;;;;;;;;4940737;29;20313;-93
2023/02/01 07:07:47;;;;;;;136.20;55.03;;;;;;;;;;4940657;29;20082;-93
2023/02/01 07:10:13;;;;;;;104.28;52.47;;;;;;;;;;4924118;29;20028;-95
2023/02/01 07:12:39;;;;;;;46.38;30.88;;;;;;;;;;4940937;29;20036;-94
2023/02/01 07:15:06;;;;;;;54.50;27.13;;;;;;;;;;4923879;29;20063;-93
2023/02/01 07:17:32;;;;;;;48.75;23.38;;;;;;;;;;4940450;29;20122;-91
2023/02/01 07:20:01;;;;;;;65.90;22.02;;;;;;;;;;4940593;29;20023;-92
2023/02/01 07:22:27;;;;;;;63.55;19.98;;;;;;;;;;4940442;29;20024;-94
2023/02/01 07:24:53;;;;;;;73.03;24.58;;;;;;;;;;4940454;29;20043;-93
2023/02/01 07:27:19;;;;;;;104.95;30.95;;;;;;;;;;4923787;29;20034;-93
2023/02/01 07:29:45;;;;;;;78.53;27.70;;;;;;;;;;4923757;29;20030;-93
2023/02/01 07:32:12;;;;;;;46.42;22.48;;;;;;;;;;4923256;29;20035;-93
2023/02/01 07:34:38;;;;;;;44.05;19.48;;;;;;;;;;4923616;29;20036;-93
2023/02/01 07:37:04;;;;;;;33.95;15.30;;;;;;;;;;4923508;29;20027;-92
2023/02/01 07:39:31;;;;;;;86.63;26.00;;;;;;;;;;4941684;29;20032;-93
2023/02/01 07:41:58;;;;;;;52.22;20.65;;;;;;;;;;4923470;29;20031;-94
2023/02/01 07:44:24;;;;;;;34.13;16.42;;;;;;;;;;4923898;29;20347;-93
2023/02/01 07:46:50;;;;;;;27.25;13.50;;;;;;;;;;4940620;29;20032;-94
2023/02/01 07:49:17;;;;;;;28.92;14.68;;;;;;;;;;4923637;29;20063;-92
2023/02/01 07:51:43;;;;;;;26.75;14.15;;;;;;;;;;4940113;29;20031;-94
2023/02/01 07:54:10;;;;;;;22.55;12.30;;;;;;;;;;4923572;29;20040;-93
2023/02/01 07:56:36;;;;;;;23.27;12.40;;;;;;;;;;4923203;29;20094;-91
2023/02/01 07:59:02;;;;;;;24.35;12.13;;;;;;;;;;4923622;29;20102;-94
2023/02/01 08:01:29;;;;;;;38.88;15.32;;;;;;;;;;4940393;29;20035;-93
2023/02/01 08:04:01;;;;;;;35.38;14.73;;;;;;;;;;4939976;29;20034;-94
2023/02/01 08:06:28;;;;;;;53.03;19.88;;;;;;;;;;4923380;29;20042;-94
2023/02/01 08:08:55;;;;;;;49.10;18.58;;;;;;;;;;4923449;29;20027;-94
2023/02/01 08:11:21;;;;;;;47.97;16.98;;;;;;;;;;4940063;29;20038;-93
2023/02/01 08:13:48;;;;;;;49.72;16.45;;;;;;;;;;4939876;29;20038;-92
2023/02/01 08:16:15;;;;;;;33.40;15.10;;;;;;;;;;4940091;29;20057;-92
2023/02/01 08:18:41;;;;;;;33.42;17.55;;;;;;;;;;4940106;29;20043;-93
2023/02/01 08:21:09;;;;;;;21.83;12.07;;;;;;;;;;4939901;29;20051;-93
2023/02/01 08:23:36;;;;;;;23.35;11.27;;;;;;;;;;4939934;29;20483;-91
2023/02/01 08:26:07;;;;;;;20.90;11.52;;;;;;;;;;4940574;29;20028;-91
2023/02/01 08:28:34;;;;;;;19.20;10.07;;;;;;;;;;4939894;29;20449;-92
2023/02/01 08:31:04;;;;;;;18.83;10.35;;;;;;;;;;4940140;29;20310;-92
2023/02/01 08:33:30;;;;;;;18.40;9.50;;;;;;;;;;4939957;29;20020;-93
2023/02/01 08:35:56;;;;;;;20.77;12.43;;;;;;;;;;4939900;29;20323;-92
2023/02/01 08:38:22;;;;;;;17.42;10.52;;;;;;;;;;4923290;29;20028;-93
2023/02/01 08:40:48;;;;;;;22.00;11.82;;;;;;;;;;4939824;29;20030;-93
2023/02/01 08:43:14;;;;;;;89.82;42.42;;;;;;;;;;4925152;29;20024;-92
2023/02/01 08:45:40;;;;;;;19.30;10.80;;;;;;;;;;4926756;29;20024;-93
2023/02/01 08:48:06;;;;;;;16.55;8.43;;;;;;;;;;4943440;29;20442;-92
2023/02/01 08:50:32;;;;;;;23.88;12.30;;;;;;;;;;4926465;29;20036;-94
2023/02/01 08:52:59;;;;;;;21.50;11.90;;;;;;;;;;4926572;29;20032;-93
2023/02/01 08:55:26;;;;;;;15.75;8.00;;;;;;;;;;4926430;29;20457;-93
2023/02/01 08:57:52;;;;;;;18.05;9.38;;;;;;;;;;4943084;29;20032;-94
2023/02/01 09:00:18;;;;;;;26.35;12.40;;;;;;;;;;4943144;29;20024;-92
2023/02/01 09:02:45;;;;;;;23.88;12.10;;;;;;;;;;4926459;29;20019;-92
2023/02/01 09:05:11;;;;;;;21.33;11.93;;;;;;;;;;4943124;29;20039;-93
2023/02/01 09:07:38;;;;;;;25.08;13.57;;;;;;;;;;4942682;29;20087;-94
2023/02/01 09:10:04;;;;;;;24.70;14.43;;;;;;;;;;4926037;29;20085;-93
2023/02/01 09:12:31;;;;;;;21.40;12.18;;;;;;;;;;4943005;29;20437;-94
2023/02/01 09:14:59;;;;;;;21.30;12.75;;;;;;;;;;4925970;29;20028;-92
2023/02/01 09:17:26;;;;;;;25.42;12.95;;;;;;;;;;4942652;29;20051;-93
2023/02/01 09:19:53;;;;;;;26.05;14.00;;;;;;;;;;4926100;29;20027;-93
2023/02/01 09:22:19;;;;;;;40.13;17.30;;;;;;;;;;4926100;29;20027;-93
2023/02/01 09:24:45;;;;;;;53.92;22.52;;;;;;;;;;4925730;29;20070;-93
2023/02/01 09:27:11;;;;;;;53.20;22.15;;;;;;;;;;4942513;29;20039;-92
2023/02/01 09:29:37;;;;;;;66.70;27.48;;;;;;;;;;4942704;29;20035;-92
2023/02/01 09:32:04;;;;;;;88.78;32.83;;;;;;;;;;4942456;29;20036;-94
2023/02/01 09:34:30;;;;;;;96.70;32.85;;;;;;;;;;4942654;29;20036;-93
2023/02/01 09:36:56;;;;;;;106.10;34.15;;;;;;;;;;4942349;29;20028;-94
2023/02/01 09:39:22;;;;;;;81.95;29.38;;;;;;;;;;4942429;29;20143;-93
2023/02/01 09:42:07;;;;;;;60.13;21.20;;;;;;;;;;4925613;29;20052;-93
2023/02/01 09:44:33;;;;;;;42.63;20.10;;;;;;;;;;4942558;29;20052;-93
2023/02/01 09:47:00;;;;;;;34.10;16.83;;;;;;;;;;4942589;29;20151;-93
2023/02/01 09:49:36;;;;;;;34.25;17.70;;;;;;;;;;4925376;29;20032;-93
2023/02/01 09:52:05;;;;;;;51.30;24.80;;;;;;;;;;4941847;29;20307;-92
2023/02/01 09:54:41;;;;;;;35.28;18.05;;;;;;;;;;4924590;29;20028;-94
2023/02/01 09:57:08;;;;;;;62.75;24.50;;;;;;;;;;4922042;29;20044;-93
2023/02/01 09:59:46;;;;;;;70.25;22.77;;;;;;;;;;4922269;29;20028;-92
2023/02/01 10:02:22;;;;;;;51.75;20.63;;;;;;;;;;4922878;29;20028;-92
2023/02/01 10:04:48;;;;;;;62.28;21.20;;;;;;;;;;4921966;29;20032;-92
2023/02/01 10:07:22;;;;;;;43.63;17.58;;;;;;;;;;4922813;29;20107;-92
2023/02/01 10:10:01;;;;;;;52.00;20.30;;;;;;;;;;4921907;29;20032;-92
2023/02/01 10:12:39;;;;;;;54.85;20.70;;;;;;;;;;4922977;29;20111;-93
2023/02/01 10:15:24;;;;;;;65.50;22.35;;;;;;;;;;4922783;29;20054;-92
2023/02/01 10:17:59;;;;;;;78.28;27.75;;;;;;;;;;4922810;29;20028;-93
2023/02/01 10:20:44;;;;;;;66.03;25.77;;;;;;;;;;4921737;29;20319;-92
2023/02/01 10:23:25;;;;;;;61.35;24.08;;;;;;;;;;4922457;29;20032;-91
2023/02/01 10:25:55;;;;;;;52.75;21.85;;;;;;;;;;4922023;29;20446;-92
2023/02/01 10:28:23;;;;;;;31.15;14.98;;;;;;;;;;4921633;29;20044;-93
2023/02/01 10:30:52;;;;;;;32.22;15.10;;;;;;;;;;4921667;29;20121;-91
2023/02/01 10:33:21;;;;;;;31.98;15.43;;;;;;;;;;4922661;29;20055;-92
2023/02/01 10:35:50;;;;;;;34.38;15.65;;;;;;;;;;4921538;29;20035;-93
2023/02/01 10:38:34;;;;;;;30.92;14.52;;;;;;;;;;4922076;29;20419;-92
2023/02/01 10:41:02;;;;;;;35.90;16.40;;;;;;;;;;4922507;29;20031;-94
2023/02/01 10:43:29;;;;;;;36.35;16.67;;;;;;;;;;4921312;29;20156;-92
2023/02/01 10:45:55;;;;;;;44.67;19.55;;;;;;;;;;4922353;29;20027;-93
2023/02/01 10:48:21;;;;;;;41.15;21.10;;;;;;;;;;4921217;29;20035;-93
2023/02/01 10:50:54;;;;;;;56.58;24.60;;;;;;;;;;4921127;29;20042;-93
2023/02/01 10:53:37;;;;;;;55.35;25.05;;;;;;;;;;4921783;29;20036;-93
2023/02/01 10:56:06;;;;;;;57.70;26.23;;;;;;;;;;4921709;29;20051;-93
2023/02/01 10:58:33;;;;;;;55.80;25.92;;;;;;;;;;4920678;29;20036;-93
2023/02/01 11:01:04;;;;;;;40.00;18.15;;;;;;;;;;4920996;29;20080;-93
2023/02/01 11:03:36;;;;;;;37.60;17.58;;;;;;;;;;4921854;29;20059;-94
2023/02/01 11:06:05;;;;;;;46.85;20.85;;;;;;;;;;4921238;29;20040;-93
2023/02/01 11:08:31;;;;;;;34.70;18.17;;;;;;;;;;4921978;29;20047;-91
2023/02/01 11:10:59;;;;;;;22.52;13.02;;;;;;;;;;4921854;29;20117;-94
2023/02/01 11:13:29;;;;;;;22.40;12.88;;;;;;;;;;4921712;29;20068;-92
2023/02/01 11:15:56;;;;;;;30.48;15.43;;;;;;;;;;4920600;29;20038;-91
2023/02/01 11:18:28;;;;;;;22.70;13.82;;;;;;;;;;4920525;29;20040;-92
2023/02/01 11:20:55;;;;;;;30.55;16.33;;;;;;;;;;4921871;29;20028;-92
2023/02/01 11:23:23;;;;;;;44.22;21.63;;;;;;;;;;4921636;29;20028;-93
2023/02/01 11:25:51;;;;;;;29.98;15.07;;;;;;;;;;4921548;29;20028;-92
2023/02/01 11:28:18;;;;;;;29.55;18.02;;;;;;;;;;4921605;29;20111;-91
2023/02/01 11:30:45;;;;;;;21.30;14.30;;;;;;;;;;4921523;29;20356;-93
2023/02/01 11:33:14;;;;;;;20.90;13.35;;;;;;;;;;4921378;29;20036;-91
2023/02/01 11:35:42;;;;;;;30.67;16.63;;;;;;;;;;4921638;29;20028;-94
2023/02/01 11:38:14;;;;;;;29.48;16.10;;;;;;;;;;4921403;29;20123;-92
2023/02/01 11:40:40;;;;;;;21.55;12.82;;;;;;;;;;4920544;29;20056;-93
2023/02/01 11:43:16;;;;;;;23.38;14.32;;;;;;;;;;4921345;29;20030;-92
2023/02/01 11:45:53;;;;;;;23.08;12.15;;;;;;;;;;4921440;29;20452;-93
2023/02/01 11:48:19;;;;;;;28.73;15.50;;;;;;;;;;4920385;29;20064;-92
2023/02/01 11:50:52;;;;;;;24.90;14.23;;;;;;;;;;4921144;29;20036;-90
2023/02/01 11:56:21;;;;;;;31.42;14.88;;;;;;;;;;4920959;29;19959;-93
2023/02/01 11:58:47;;;;;;;;;;;;;;;;;;4921513;29;20040;-91
2023/02/01 12:01:32;;;;;;;18.67;9.48;;;;;;;;;;4920474;29;19931;-94
2023/02/01 12:04:21;;;;;;;29.23;15.80;;;;;;;;;;4921172;29;20043;-94
2023/02/01 12:06:50;;;;;;;24.77;12.73;;;;;;;;;;4921208;29;20186;-96
2023/02/01 12:09:25;;;;;;;24.65;12.88;;;;;;;;;;4919868;29;20040;-94
2023/02/01 12:11:51;;;;;;;24.35;12.10;;;;;;;;;;4919878;29;20038;-93
2023/02/01 12:14:18;;;;;;;27.20;13.90;;;;;;;;;;4927976;29;20024;-92
2023/02/01 12:17:03;;;;;;;20.15;10.15;;;;;;;;;;4919935;29;20308;-92
2023/02/01 12:19:36;;;;;;;29.48;14.48;;;;;;;;;;4923989;29;20040;-92
2023/02/01 12:22:05;;;;;;;21.00;11.70;;;;;;;;;;4939462;29;20039;-91
2023/02/01 12:24:46;;;;;;;21.95;12.60;;;;;;;;;;4943705;29;20331;-93
2023/02/01 12:27:15;;;;;;;30.35;12.43;;;;;;;;;;4943728;29;20027;-93
2023/02/01 12:30:00;;;;;;;16.65;8.30;;;;;;;;;;4943672;29;20095;-93
2023/02/01 12:32:32;;;;;;;20.73;10.73;;;;;;;;;;4942481;29;20027;-93
2023/02/01 12:35:18;;;;;;;18.75;10.75;;;;;;;;;;4943448;29;20032;-92
2023/02/01 12:37:54;;;;;;;35.25;15.65;;;;;;;;;;4943537;29;20090;-92
2023/02/01 12:40:36;;;;;;;17.33;8.80;;;;;;;;;;4943524;29;20040;-94
2023/02/01 12:43:15;;;;;;;20.58;12.18;;;;;;;;;;4942460;29;20442;-94
2023/02/01 12:45:51;;;;;;;23.02;11.95;;;;;;;;;;4942371;29;20035;-93
2023/02/01 12:48:27;;;;;;;28.50;15.32;;;;;;;;;;4943553;29;20111;-92
2023/02/01 12:50:54;;;;;;;23.05;14.00;;;;;;;;;;4942289;29;20040;-93
2023/02/01 12:53:25;;;;;;;20.45;9.88;;;;;;;;;;4943193;29;20032;-92
2023/02/01 12:55:54;;;;;;;30.52;13.40;;;;;;;;;;4943145;29;20073;-93
2023/02/01 12:58:23;;;;;;;23.95;9.68;;;;;;;;;;4943242;29;20035;-94
2023/02/01 13:01:00;;;;;;;35.15;13.65;;;;;;;;;;4942221;29;20078;-93
2023/02/01 13:03:26;;;;;;;29.02;13.60;;;;;;;;;;4942854;29;20304;-93
2023/02/01 13:06:17;;;;;;;32.40;15.15;;;;;;;;;;4942189;29;20032;-94
2023/02/01 13:08:57;;;;;;;34.70;15.80;;;;;;;;;;4941952;29;20024;-93
2023/02/01 13:11:26;;;;;;;24.90;11.75;;;;;;;;;;4942918;29;20028;-94
2023/02/01 13:14:28;;;;;;;18.13;9.10;;;;;;;;;;4943093;29;20095;-93
2023/02/01 13:16:58;;;;;;;28.27;12.38;;;;;;;;;;4884564;29;20041;-94
2023/02/01 13:19:43;;;;;;;34.00;14.60;;;;;;;;;;4884839;29;20037;-92
2023/02/01 13:22:18;;;;;;;37.28;15.90;;;;;;;;;;4884510;29;20029;-92
2023/02/01 13:24:50;;;;;;;32.63;15.65;;;;;;;;;;4881971;29;20134;-92
2023/02/01 13:27:17;;;;;;;45.45;20.33;;;;;;;;;;4848665;29;20034;-94
2023/02/01 13:29:57;;;;;;;29.02;12.80;;;;;;;;;;4846556;29;20513;-93
2023/02/01 13:32:37;;;;;;;30.55;14.82;;;;;;;;;;4847505;29;20073;-93
2023/02/01 13:35:03;;;;;;;24.67;10.20;;;;;;;;;;4847216;29;20332;-93
2023/02/01 13:37:48;;;;;;;39.80;15.25;;;;;;;;;;4847192;29;20042;-93
2023/02/01 13:40:22;;;;;;;56.20;25.08;;;;;;;;;;4847217;29;20022;-94
2023/02/01 13:42:53;;;;;;;50.88;23.10;;;;;;;;;;4847253;29;20026;-95
2023/02/01 13:45:21;;;;;;;63.83;31.38;;;;;;;;;;4847077;29;20038;-93
2023/02/01 13:47:49;;;;;;;111.50;74.85;;;;;;;;;;4847046;29;20036;-93
2023/02/01 13:50:33;;;;;;;50.03;25.10;;;;;;;;;;4861610;29;20044;-94
2023/02/01 13:53:12;;;;;;;53.08;25.33;;;;;;;;;;4904173;29;20037;-93
2023/02/01 13:55:42;;;;;;;71.70;26.77;;;;;;;;;;4912402;29;20056;-94
2023/02/01 13:58:16;;;;;;;78.18;30.25;;;;;;;;;;4907320;29;20352;-93
2023/02/01 14:00:44;;;;;;;65.22;26.80;;;;;;;;;;4904137;29;20108;-92
2023/02/01 14:03:11;;;;;;;51.17;22.35;;;;;;;;;;4903068;29;20383;-94
2023/02/01 14:05:37;;;;;;;26.58;14.93;;;;;;;;;;4904044;29;20032;-93
2023/02/01 14:08:07;;;;;;;33.67;16.95;;;;;;;;;;4904109;29;20052;-93
2023/02/01 14:10:56;;;;;;;35.33;16.02;;;;;;;;;;4902953;29;20392;-92
2023/02/01 14:13:39;;;;;;;28.20;14.65;;;;;;;;;;4903871;29;20032;-95
2023/02/01 14:16:10;;;;;;;35.78;14.93;;;;;;;;;;4922694;29;20451;-94
2023/02/01 14:18:45;;;;;;;27.07;12.23;;;;;;;;;;4923770;29;20451;-92
2023/02/01 14:21:30;;;;;;;30.33;13.00;;;;;;;;;;4922192;29;20040;-92
2023/02/01 14:27:00;;;;;;;25.90;11.85;;;;;;;;;;4922760;29;20038;-92
2023/02/01 14:29:33;;;;;;;36.53;14.30;;;;;;;;;;4923303;29;20048;-93
2023/02/01 14:32:05;;;;;;;22.48;11.73;;;;;;;;;;4922363;29;20035;-93
2023/02/01 14:34:42;;;;;;;30.98;16.42;;;;;;;;;;4922668;29;20039;-93
2023/02/01 14:37:10;;;;;;;29.77;15.60;;;;;;;;;;4921094;29;20423;-93
2023/02/01 14:39:41;;;;;;;110.57;36.60;;;;;;;;;;4922048;29;20024;-91
2023/02/01 14:42:27;;;;;;;57.83;26.45;;;;;;;;;;4921017;29;20028;-92
2023/02/01 14:44:54;;;;;;;238.68;80.80;;;;;;;;;;4917431;29;20020;-93
2023/02/01 14:47:20;;;;;;;81.90;33.60;;;;;;;;;;4922222;29;20032;-92
2023/02/01 14:49:55;;;;;;;83.25;35.08;;;;;;;;;;4921189;29;20028;-91
2023/02/01 14:52:26;;;;;;;300.17;115.57;;;;;;;;;;4922101;29;20024;-94
2023/02/01 14:54:55;;;;;;;450.20;186.43;;;;;;;;;;4920948;29;20040;-94
2023/02/01 14:57:24;;;;;;;344.48;136.60;;;;;;;;;;4922437;29;20031;-92
2023/02/01 14:59:56;;;;;;;222.27;96.85;;;;;;;;;;4922485;29;20364;-92
2023/02/01 15:02:22;;;;;;;;;;;;;;;;;;4921236;29;20036;-94
2023/02/01 15:04:53;;;;;;;65.93;30.77;;;;;;;;;;4921701;29;19970;-92
2023/02/01 15:07:19;;;;;;;78.82;36.45;;;;;;;;;;4921756;29;20072;-92
2023/02/01 15:09:47;;;;;;;66.18;32.90;;;;;;;;;;4920913;29;20085;-91
2023/02/01 15:12:24;;;;;;;86.53;39.33;;;;;;;;;;4921929;29;20059;-93
2023/02/01 15:15:08;;;;;;;120.50;50.10;;;;;;;;;;4921666;29;20035;-93
2023/02/01 15:17:34;;;;;;;103.65;47.75;;;;;;;;;;4921646;29;20173;-92
2023/02/01 15:20:21;;;;;;;55.72;30.55;;;;;;;;;;4921215;29;20077;-92